createdAt,value
2019-05-23T00:02:45.180Z,96894.09
2019-05-23T00:05:34.017Z,96898.94
2019-05-23T00:08:09.552Z,96896.99
2019-05-23T00:10:43.485Z,96889.83
2019-05-23T00:13:31.415Z,96899.27
2019-05-23T00:16:03.452Z,96893.08
2019-05-23T00:18:35.875Z,96891.44
2019-05-23T00:21:08.184Z,96888.41
2019-05-23T00:23:41.033Z,96890.23
2019-05-23T00:26:14.109Z,96890.72
2019-05-23T00:28:44.951Z,96895.11
2019-05-23T00:31:29.476Z,96896.95
2019-05-23T00:34:00.385Z,96896.33
2019-05-23T00:36:31.500Z,96897.63
2019-05-23T00:39:03.505Z,96904.48
2019-05-23T00:41:33.975Z,96900.53
2019-05-23T00:44:04.934Z,96897.96
2019-05-23T00:46:35.328Z,96896.96
2019-05-23T00:49:07.898Z,96902.70
2019-05-23T00:51:40.064Z,96904.50
2019-05-23T00:54:11.909Z,96897.63
2019-05-23T00:56:43.002Z,96897.59
2019-05-23T00:59:25.929Z,96902.42
2019-05-23T01:01:46.690Z,96905.36
2019-05-23T01:04:18.192Z,96902.70
2019-05-23T01:06:49.493Z,96895.34
2019-05-23T01:09:19.961Z,96897.07
2019-05-23T01:11:50.904Z,96894.39
2019-05-23T01:14:21.574Z,96895.30
2019-05-23T01:16:53.912Z,96894.61
2019-05-23T01:19:25.299Z,96894.59
2019-05-23T01:21:59.385Z,96896.52
2019-05-23T01:24:35.424Z,96891.94
2019-05-23T01:27:07.300Z,96886.90
2019-05-23T01:29:42.205Z,96891.63
2019-05-23T01:32:19.378Z,96902.58
2019-05-23T01:34:51.240Z,96899.05
2019-05-23T01:37:21.978Z,96897.13
2019-05-23T01:39:53.032Z,96892.41
2019-05-23T01:42:24.340Z,96891.65
2019-05-23T01:44:57.803Z,96893.32
2019-05-23T01:47:29.369Z,96888.57
2019-05-23T01:50:01.337Z,96886.72
2019-05-23T01:52:33.056Z,96890.13
2019-05-23T01:55:03.497Z,96884.39
2019-05-23T01:57:34.227Z,96887.31
2019-05-23T02:00:10.576Z,96895.49
2019-05-23T02:02:39.320Z,96888.55
2019-05-23T02:05:11.666Z,96893.77
2019-05-23T02:07:42.022Z,96888.98
2019-05-23T02:10:14.007Z,96887.78
2019-05-23T02:12:44.802Z,96892.08
2019-05-23T02:15:15.679Z,96897.33
2019-05-23T02:17:46.649Z,96891.49
2019-05-23T02:20:20.517Z,96889.20
2019-05-23T02:22:51.635Z,96888.53
2019-05-23T02:25:24.892Z,96886.77
2019-05-23T02:27:55.719Z,96884.20
2019-05-23T02:30:36.006Z,96890.26
2019-05-23T02:32:59.314Z,96886.70
2019-05-23T02:35:29.898Z,96891.30
2019-05-23T02:38:18.770Z,96894.06
2019-05-23T02:41:07.231Z,96889.04
2019-05-23T02:43:38.172Z,96887.59
2019-05-23T02:46:16.588Z,96888.41
2019-05-23T02:48:48.633Z,96888.47
2019-05-23T02:51:29.379Z,96894.20
2019-05-23T02:54:02.108Z,96891.28
2019-05-23T02:56:36.780Z,96893.73
2019-05-23T02:59:51.456Z,96899.98
2019-05-23T03:02:54.706Z,96896.63
2019-05-23T03:05:27.184Z,96890.15
2019-05-23T03:08:00.638Z,96894.48
2019-05-23T03:10:54.691Z,96888.16
2019-05-23T03:13:28.366Z,96885.28
2019-05-23T03:16:00.586Z,96884.50
2019-05-23T03:18:35.116Z,96884.80
2019-05-23T03:21:06.322Z,96881.70
2019-05-23T03:23:37.197Z,96877.88
2019-05-23T03:27:00.922Z,96874.71
2019-05-23T03:29:33.477Z,96872.77
2019-05-23T03:32:19.903Z,96875.11
2019-05-23T03:34:53.712Z,96881.97
2019-05-23T03:37:24.060Z,96880.38
2019-05-23T03:39:55.341Z,96880.67
2019-05-23T03:42:27.747Z,96879.09
2019-05-23T03:45:00.131Z,96881.09
2019-05-23T03:47:32.259Z,96887.48
2019-05-23T03:50:03.097Z,96888.02
2019-05-23T03:52:33.649Z,96887.72
2019-05-23T03:55:05.686Z,96888.67
2019-05-23T03:57:36.942Z,96890.14
2019-05-23T04:00:11.676Z,96896.03
2019-05-23T04:02:42.562Z,96894.30
2019-05-23T04:05:13.024Z,96889.41
2019-05-23T04:07:44.564Z,96898.59
2019-05-23T04:10:15.451Z,96891.73
2019-05-23T04:12:45.903Z,96887.86
2019-05-23T04:15:16.701Z,96892.11
2019-05-23T04:17:47.523Z,96889.20
2019-05-23T04:20:17.822Z,96889.69
2019-05-23T04:22:48.344Z,96891.47
2019-05-23T04:25:19.079Z,96893.79
2019-05-23T04:27:49.870Z,96899.34
2019-05-23T04:30:20.750Z,96895.15
2019-05-23T04:32:51.606Z,96904.30
2019-05-23T04:35:21.953Z,96907.63
2019-05-23T04:37:52.648Z,96908.62
2019-05-23T04:40:23.822Z,96910.61
2019-05-23T04:42:54.367Z,96913.87
2019-05-23T04:45:25.846Z,96904.70
2019-05-23T04:47:56.576Z,96902.11
2019-05-23T04:50:28.025Z,96911.10
2019-05-23T04:53:01.925Z,96916.48
2019-05-23T04:55:32.653Z,96913.87
2019-05-23T04:58:05.031Z,96913.54
2019-05-23T05:00:35.938Z,96913.21
2019-05-23T05:03:08.608Z,96920.40
2019-05-23T05:05:38.986Z,96919.44
2019-05-23T05:08:09.635Z,96924.48
2019-05-23T05:10:42.069Z,96922.69
2019-05-23T05:13:12.492Z,96922.34
2019-05-23T05:15:43.378Z,96928.87
2019-05-23T05:18:14.449Z,96929.20
2019-05-23T05:20:44.936Z,96930.14
2019-05-23T05:23:15.422Z,96926.50
2019-05-23T05:25:45.919Z,96923.53
2019-05-23T05:28:16.312Z,96922.53
2019-05-23T05:30:47.065Z,96926.73
2019-05-23T05:33:17.703Z,96927.33
2019-05-23T05:35:48.227Z,96923.38
2019-05-23T05:38:19.692Z,96923.99
2019-05-23T05:40:50.621Z,96927.69
2019-05-23T05:43:21.566Z,96930.27
2019-05-23T05:45:52.642Z,96929.70
2019-05-23T05:48:23.024Z,96931.28
2019-05-23T05:50:53.897Z,96928.87
2019-05-23T05:53:24.672Z,96930.73
2019-05-23T05:55:55.146Z,96932.59
2019-05-23T05:58:25.658Z,96933.12
2019-05-23T06:01:04.461Z,96937.59
2019-05-23T06:03:35.149Z,96938.30
2019-05-23T06:06:29.166Z,96937.67
2019-05-23T06:09:01.629Z,96936.25
2019-05-23T06:11:32.264Z,96937.05
2019-05-23T06:14:02.807Z,96938.82
2019-05-23T06:16:34.745Z,96938.28
2019-05-23T06:19:06.363Z,96935.80
2019-05-23T06:21:36.938Z,96932.97
2019-05-23T06:24:07.890Z,96938.80
2019-05-23T06:26:40.140Z,96933.09
2019-05-23T06:29:10.592Z,96934.16
2019-05-23T06:31:42.942Z,96938.19
2019-05-23T06:34:14.254Z,96937.16
2019-05-23T06:36:44.784Z,96938.44
2019-05-23T06:39:15.768Z,96931.66
2019-05-23T06:41:46.489Z,96939.84
2019-05-23T06:44:18.486Z,96939.61
2019-05-23T06:46:49.456Z,96936.33
2019-05-23T06:49:19.777Z,96930.67
2019-05-23T06:51:50.109Z,96938.00
2019-05-23T06:54:20.525Z,96935.42
2019-05-23T06:56:50.884Z,96931.73
2019-05-23T06:59:21.532Z,96941.16
2019-05-23T07:01:51.992Z,96937.95
2019-05-23T07:04:22.350Z,96935.33
2019-05-23T07:06:53.225Z,96936.58
2019-05-23T07:09:24.634Z,96931.39
2019-05-23T07:11:59.139Z,96937.63
2019-05-23T07:14:32.057Z,96942.62
2019-05-23T07:17:02.482Z,96935.41
2019-05-23T07:19:33.047Z,96937.44
2019-05-23T07:22:03.922Z,96929.70
2019-05-23T07:24:34.374Z,96932.03
2019-05-23T07:27:04.850Z,96934.77
2019-05-23T07:29:36.029Z,96929.77
2019-05-23T07:32:07.537Z,96938.16
2019-05-23T07:34:37.973Z,96938.47
2019-05-23T07:37:09.440Z,96937.67
2019-05-23T07:39:40.012Z,96939.58
2019-05-23T07:42:11.678Z,96937.78
2019-05-23T07:44:48.413Z,96936.89
2019-05-23T07:47:16.108Z,96929.94
2019-05-23T07:49:47.993Z,96932.78
2019-05-23T07:52:21.444Z,96929.25
2019-05-23T07:54:57.876Z,96929.34
2019-05-23T07:57:28.494Z,96927.16
2019-05-23T07:59:58.932Z,96928.83
2019-05-23T08:02:34.230Z,96923.16
2019-05-23T08:05:06.569Z,96923.14
2019-05-23T08:07:37.542Z,96926.10
2019-05-23T08:10:09.777Z,96918.38
2019-05-23T08:12:40.686Z,96923.61
2019-05-23T08:15:11.998Z,96920.36
2019-05-23T08:17:47.288Z,96921.46
2019-05-23T08:20:17.980Z,96918.73
2019-05-23T08:22:48.395Z,96919.78
2019-05-23T08:25:18.763Z,96908.98
2019-05-23T08:27:49.263Z,96908.19
2019-05-23T08:30:20.242Z,96906.03
2019-05-23T08:32:51.237Z,96902.48
2019-05-23T08:35:21.969Z,96903.88
2019-05-23T08:37:52.616Z,96907.14
2019-05-23T08:40:23.957Z,96906.12
2019-05-23T08:42:54.408Z,96902.27
2019-05-23T08:45:24.874Z,96906.95
2019-05-23T08:47:55.408Z,96897.92
2019-05-23T08:50:26.013Z,96902.05
2019-05-23T08:52:56.485Z,96900.02
2019-05-23T08:55:27.930Z,96900.97
2019-05-23T08:57:59.105Z,96903.97
2019-05-23T09:00:29.917Z,96897.53
2019-05-23T09:03:02.083Z,96894.59
2019-05-23T09:05:33.071Z,96893.27
2019-05-23T09:08:03.903Z,96890.59
2019-05-23T09:10:34.719Z,96886.57
2019-05-23T09:13:05.852Z,96890.23
2019-05-23T09:15:36.251Z,96889.48
2019-05-23T09:18:08.168Z,96884.71
2019-05-23T09:20:38.830Z,96889.94
2019-05-23T09:23:09.168Z,96885.84
2019-05-23T09:25:39.671Z,96887.55
2019-05-23T09:28:11.774Z,96891.48
2019-05-23T09:30:42.264Z,96887.23
2019-05-23T09:33:12.929Z,96887.95
2019-05-23T09:35:43.730Z,96882.09
2019-05-23T09:38:14.114Z,96886.91
2019-05-23T09:40:44.858Z,96880.14
2019-05-23T09:43:15.581Z,96876.91
2019-05-23T09:45:46.005Z,96873.06
2019-05-23T09:48:16.446Z,96878.31
2019-05-23T09:50:49.050Z,96881.39
2019-05-23T09:53:19.727Z,96877.27
2019-05-23T09:55:50.037Z,96872.81
2019-05-23T09:58:20.539Z,96871.83
2019-05-23T10:00:51.670Z,96868.19
2019-05-23T10:03:22.149Z,96870.06
2019-05-23T10:05:52.644Z,96870.95
2019-05-23T10:08:23.127Z,96863.68
2019-05-23T10:10:53.868Z,96872.17
2019-05-23T10:13:38.681Z,96862.06
2019-05-23T10:16:08.077Z,96871.09
2019-05-23T10:18:38.675Z,96870.19
2019-05-23T10:21:09.185Z,96870.20
2019-05-23T10:23:39.602Z,96865.10
2019-05-23T10:26:11.362Z,96874.23
2019-05-23T10:28:42.160Z,96865.63
2019-05-23T10:31:13.378Z,96867.30
2019-05-23T10:33:44.284Z,96860.78
2019-05-23T10:36:15.112Z,96859.61
2019-05-23T10:38:45.557Z,96856.17
2019-05-23T10:41:15.936Z,96852.35
2019-05-23T10:43:46.873Z,96842.73
2019-05-23T10:46:17.640Z,96842.19
2019-05-23T10:48:48.227Z,96842.37
2019-05-23T10:51:19.215Z,96843.02
2019-05-23T10:53:49.792Z,96838.31
2019-05-23T10:56:21.094Z,96838.13
2019-05-23T10:58:52.294Z,96832.80
2019-05-23T11:01:23.011Z,96834.76
2019-05-23T11:03:54.055Z,96830.83
2019-05-23T11:06:25.798Z,96826.84
2019-05-23T11:08:56.598Z,96830.35
2019-05-23T11:11:27.209Z,96826.34
2019-05-23T11:13:58.507Z,96821.77
2019-05-23T11:16:29.156Z,96817.02
2019-05-23T11:18:59.589Z,96812.42
2019-05-23T11:21:30.316Z,96815.32
2019-05-23T11:24:01.392Z,96819.58
2019-05-23T11:26:32.082Z,96815.35
2019-05-23T11:29:02.664Z,96806.09
2019-05-23T11:31:33.203Z,96815.97
2019-05-23T11:34:04.001Z,96812.64
2019-05-23T11:36:36.648Z,96805.68
2019-05-23T11:39:09.442Z,96804.08
2019-05-23T11:41:39.903Z,96805.80
2019-05-23T11:44:10.358Z,96793.06
2019-05-23T11:46:41.007Z,96789.53
2019-05-23T11:49:11.439Z,96784.78
2019-05-23T11:51:42.295Z,96792.46
2019-05-23T11:54:12.716Z,96784.59
2019-05-23T11:56:43.232Z,96784.84
2019-05-23T11:59:13.901Z,96784.73
2019-05-23T12:02:06.228Z,96781.73
2019-05-23T12:04:41.919Z,96774.48
2019-05-23T12:07:19.330Z,96771.75
2019-05-23T12:09:49.793Z,96770.02
2019-05-23T12:12:20.540Z,96773.09
2019-05-23T12:14:50.978Z,96768.52
2019-05-23T12:17:22.870Z,96768.06
2019-05-23T12:19:53.300Z,96766.41
2019-05-23T12:22:24.271Z,96762.27
2019-05-23T12:24:54.876Z,96753.19
2019-05-23T12:27:25.990Z,96758.30
2019-05-23T12:29:56.878Z,96755.50
2019-05-23T12:32:27.507Z,96756.33
2019-05-23T12:35:10.574Z,96745.94
2019-05-23T12:37:30.136Z,96750.41
2019-05-23T12:40:01.239Z,96749.38
2019-05-23T12:42:31.676Z,96749.09
2019-05-23T12:45:02.925Z,96749.23
2019-05-23T12:47:58.169Z,96738.86
2019-05-23T12:50:32.749Z,96740.66
2019-05-23T12:53:04.512Z,96731.66
2019-05-23T12:55:34.980Z,96729.26
2019-05-23T12:58:05.383Z,96727.83
2019-05-23T13:00:57.865Z,96727.82
2019-05-23T13:03:29.963Z,96729.08
2019-05-23T13:06:02.629Z,96723.87
2019-05-23T13:08:34.980Z,96725.59
2019-05-23T13:11:06.824Z,96723.76
2019-05-23T13:13:37.873Z,96724.67
2019-05-23T13:16:09.215Z,96716.34
2019-05-23T13:18:40.372Z,96707.91
2019-05-23T13:21:11.692Z,96711.94
2019-05-23T13:23:43.064Z,96698.83
2019-05-23T13:26:14.155Z,96706.35
2019-05-23T13:28:45.431Z,96702.08
2019-05-23T13:31:16.458Z,96698.76
2019-05-23T13:33:48.051Z,96703.80
2019-05-23T13:36:19.424Z,96696.28
2019-05-23T13:38:51.338Z,96692.00
2019-05-23T13:41:21.877Z,96696.31
2019-05-23T13:43:52.694Z,96691.23
2019-05-23T13:46:23.409Z,96693.73
2019-05-23T13:48:53.843Z,96689.06
2019-05-23T13:51:24.393Z,96692.13
2019-05-23T13:53:54.825Z,96692.06
2019-05-23T13:56:25.328Z,96684.11
2019-05-23T13:58:55.968Z,96680.44
2019-05-23T14:01:26.512Z,96678.34
2019-05-23T14:03:57.414Z,96676.94
2019-05-23T14:06:27.800Z,96672.05
2019-05-23T14:08:58.236Z,96670.84
2019-05-23T14:11:28.710Z,96675.83
2019-05-23T14:14:01.782Z,96672.53
2019-05-23T14:16:33.790Z,96674.00
2019-05-23T14:19:04.242Z,96671.37
2019-05-23T14:24:04.604Z,96663.39
2019-05-23T14:26:41.348Z,96666.49
2019-05-23T14:29:11.753Z,96659.66
2019-05-23T14:31:50.118Z,96660.55
2019-05-23T14:34:21.146Z,96651.44
2019-05-23T14:37:14.598Z,96646.44
2019-05-23T14:40:00.538Z,96653.96
2019-05-23T14:42:39.448Z,96653.52
2019-05-23T14:45:36.393Z,96654.92
2019-05-23T14:48:13.378Z,96658.50
2019-05-23T14:50:58.992Z,96656.23
2019-05-23T14:53:31.027Z,96648.02
2019-05-23T14:56:01.441Z,96654.20
2019-05-23T14:58:32.127Z,96649.31
2019-05-23T15:01:04.613Z,96648.10
2019-05-23T15:03:36.049Z,96642.06
2019-05-23T15:06:06.746Z,96633.34
2019-05-23T15:08:50.579Z,96633.92
2019-05-23T15:11:09.329Z,96639.30
2019-05-23T15:13:39.744Z,96635.20
2019-05-23T15:16:11.572Z,96634.20
2019-05-23T15:18:42.100Z,96625.81
2019-05-23T15:21:12.710Z,96629.20
2019-05-23T15:23:43.118Z,96632.16
2019-05-23T15:26:23.173Z,96633.48
2019-05-23T15:28:45.795Z,96628.20
2019-05-23T15:31:35.226Z,96627.09
2019-05-23T15:34:05.690Z,96620.92
2019-05-23T15:36:36.119Z,96624.40
2019-05-23T15:39:10.561Z,96625.70
2019-05-23T15:41:41.438Z,96623.93
2019-05-23T15:44:25.925Z,96614.03
2019-05-23T15:46:44.318Z,96614.34
2019-05-23T15:49:15.523Z,96615.66
2019-05-23T15:51:53.988Z,96612.73
2019-05-23T15:54:32.695Z,96615.34
2019-05-23T15:57:27.988Z,96614.59
2019-05-23T16:00:18.229Z,96609.63
2019-05-23T16:02:57.122Z,96609.22
2019-05-23T16:05:27.587Z,96604.08
2019-05-23T16:07:58.121Z,96603.45
2019-05-23T16:10:29.637Z,96608.91
2019-05-23T16:13:00.423Z,96606.80
2019-05-23T16:15:30.909Z,96599.21
2019-05-23T16:18:01.334Z,96598.12
2019-05-23T16:20:31.851Z,96596.64
2019-05-23T16:23:02.302Z,96596.35
2019-05-23T16:25:32.700Z,96588.39
2019-05-23T16:28:03.128Z,96587.27
2019-05-23T16:30:33.565Z,96583.47
2019-05-23T16:33:04.012Z,96594.60
2019-05-23T16:35:34.855Z,96591.16
2019-05-23T16:38:05.376Z,96584.88
2019-05-23T16:40:36.220Z,96583.12
2019-05-23T16:43:06.652Z,96586.53
2019-05-23T16:45:37.101Z,96591.68
2019-05-23T16:48:07.829Z,96588.25
2019-05-23T16:50:38.481Z,96595.44
2019-05-23T16:53:08.885Z,96586.73
2019-05-23T16:55:55.288Z,96579.59
2019-05-23T16:58:41.570Z,96581.92
2019-05-23T17:01:24.245Z,96579.82
2019-05-23T17:04:06.378Z,96582.32
2019-05-23T17:07:01.796Z,96584.47
2019-05-23T17:09:38.865Z,96587.53
2019-05-23T17:12:21.905Z,96580.87
2019-05-23T17:15:08.120Z,96590.12
2019-05-23T17:18:02.735Z,96579.64
2019-05-23T17:20:48.378Z,96588.55
2019-05-23T17:23:32.728Z,96579.44
2019-05-23T17:26:18.122Z,96583.79
2019-05-23T17:28:51.112Z,96581.38
2019-05-23T17:31:26.966Z,96581.88
2019-05-23T17:33:57.498Z,96584.79
2019-05-23T17:36:28.081Z,96579.20
2019-05-23T17:38:58.435Z,96581.54
2019-05-23T17:41:28.881Z,96580.93
2019-05-23T17:43:59.386Z,96585.44
2019-05-23T17:46:29.736Z,96583.63
2019-05-23T17:49:00.273Z,96590.52
2019-05-23T17:51:30.740Z,96585.83
2019-05-23T17:54:01.220Z,96584.04
2019-05-23T17:56:31.608Z,96584.67
2019-05-23T17:59:02.232Z,96586.34
2019-05-23T18:01:33.290Z,96587.75
2019-05-23T18:04:04.279Z,96583.70
2019-05-23T18:06:35.484Z,96585.95
2019-05-23T18:09:08.539Z,96582.59
2019-05-23T18:11:39.286Z,96580.73
2019-05-23T18:14:10.848Z,96580.26
2019-05-23T18:16:42.928Z,96575.05
2019-05-23T18:19:13.893Z,96575.97
2019-05-23T18:21:45.010Z,96582.95
2019-05-23T18:24:17.217Z,96581.91
2019-05-23T18:26:47.724Z,96583.47
2019-05-23T18:29:18.501Z,96579.97
2019-05-23T18:31:50.712Z,96579.08
2019-05-23T18:34:22.520Z,96582.55
2019-05-23T18:36:53.852Z,96587.49
2019-05-23T18:39:24.577Z,96579.13
2019-05-23T18:41:55.721Z,96587.86
2019-05-23T18:44:26.501Z,96589.72
2019-05-23T18:46:59.387Z,96595.38
2019-05-23T18:49:29.935Z,96587.55
2019-05-23T18:52:00.903Z,96588.55
2019-05-23T18:54:31.363Z,96588.27
2019-05-23T18:57:02.123Z,96596.73
2019-05-23T18:59:32.710Z,96601.68
2019-05-23T19:02:04.280Z,96600.13
2019-05-23T19:04:34.706Z,96602.60
2019-05-23T19:07:07.489Z,96605.73
2019-05-23T19:09:38.591Z,96613.36
2019-05-23T19:12:09.922Z,96615.30
2019-05-23T19:14:40.223Z,96615.38
2019-05-23T19:17:10.859Z,96617.02
2019-05-23T19:19:41.312Z,96613.36
2019-05-23T19:22:11.652Z,96621.05
2019-05-23T19:24:42.140Z,96623.98
2019-05-23T19:27:14.456Z,96619.82
2019-05-23T19:29:46.004Z,96620.31
2019-05-23T19:32:16.642Z,96625.45
2019-05-23T19:34:47.492Z,96618.55
2019-05-23T19:37:18.308Z,96616.80
2019-05-23T19:39:48.786Z,96622.77
2019-05-23T19:42:19.763Z,96620.88
2019-05-23T19:44:50.262Z,96623.89
2019-05-23T19:47:20.691Z,96619.31
2019-05-23T19:49:51.278Z,96621.92
2019-05-23T19:52:22.005Z,96630.19
2019-05-23T19:54:52.721Z,96623.45
2019-05-23T19:57:23.276Z,96628.14
2019-05-23T19:59:54.022Z,96628.19
2019-05-23T20:02:46.113Z,96625.02
2019-05-23T20:05:21.880Z,96626.29
2019-05-23T20:07:52.391Z,96627.30
2019-05-23T20:10:23.929Z,96629.33
2019-05-23T20:12:54.347Z,96622.80
2019-05-23T20:15:24.961Z,96623.57
2019-05-23T20:17:55.660Z,96615.09
2019-05-23T20:20:26.758Z,96621.70
2019-05-23T20:22:57.773Z,96622.87
2019-05-23T20:25:28.801Z,96623.47
2019-05-23T20:27:59.223Z,96616.77
2019-05-23T20:30:57.072Z,96622.29
2019-05-23T20:33:27.487Z,96620.08
2019-05-23T20:35:58.476Z,96614.65
2019-05-23T20:38:29.007Z,96619.98
2019-05-23T20:40:59.482Z,96609.98
2019-05-23T20:43:30.043Z,96614.72
2019-05-23T20:46:00.498Z,96608.83
2019-05-23T20:48:30.988Z,96611.21
2019-05-23T20:51:01.431Z,96605.03
2019-05-23T20:53:32.525Z,96610.33
2019-05-23T20:56:02.896Z,96601.28
2019-05-23T20:58:33.409Z,96603.27
2019-05-23T21:01:11.543Z,96602.31
2019-05-23T21:03:42.320Z,96599.69
2019-05-23T21:06:12.753Z,96593.30
2019-05-23T21:08:43.553Z,96590.81
2019-05-23T21:11:13.957Z,96595.25
2019-05-23T21:13:44.450Z,96592.13
2019-05-23T21:16:14.881Z,96590.52
2019-05-23T21:18:49.025Z,96600.52
2019-05-23T21:21:17.457Z,96595.63
2019-05-23T21:23:48.053Z,96602.32
2019-05-23T21:26:18.551Z,96605.62
2019-05-23T21:28:49.068Z,96596.64
2019-05-23T21:31:22.675Z,96605.50
2019-05-23T21:33:53.135Z,96603.30
2019-05-23T21:36:23.647Z,96604.22
2019-05-23T21:38:54.155Z,96606.01
2019-05-23T21:41:24.642Z,96609.47
2019-05-23T21:43:57.012Z,96602.56
2019-05-23T21:46:27.573Z,96606.58
2019-05-23T21:48:57.907Z,96614.59
2019-05-23T21:51:28.337Z,96610.84
2019-05-23T21:53:58.825Z,96612.00
2019-05-23T21:56:29.851Z,96610.42
2019-05-23T21:59:00.486Z,96603.55
2019-05-23T22:01:53.505Z,96606.49
2019-05-23T22:04:46.001Z,96603.47
2019-05-23T22:07:16.695Z,96606.72
2019-05-23T22:09:47.062Z,96611.01
2019-05-23T22:12:17.686Z,96608.66
2019-05-23T22:14:48.680Z,96603.06
2019-05-23T22:17:20.740Z,96606.42
2019-05-23T22:19:51.190Z,96605.80
2019-05-23T22:22:22.365Z,96610.37
2019-05-23T22:24:53.272Z,96604.72
2019-05-23T22:27:23.725Z,96600.09
2019-05-23T22:29:54.474Z,96598.28
2019-05-23T22:32:26.809Z,96600.33
2019-05-23T22:35:01.737Z,96592.14
2019-05-23T22:37:32.449Z,96593.59
2019-05-23T22:40:04.012Z,96589.83
2019-05-23T22:42:34.740Z,96586.77
2019-05-23T22:45:07.785Z,96586.77
2019-05-23T22:47:38.320Z,96585.00
2019-05-23T22:50:09.130Z,96585.27
2019-05-23T22:52:39.562Z,96581.30
2019-05-23T22:55:09.944Z,96578.67
2019-05-23T22:57:40.726Z,96579.36
2019-05-23T23:00:14.127Z,96578.77
2019-05-23T23:02:46.093Z,96576.79
2019-05-23T23:05:16.730Z,96576.13
2019-05-23T23:07:47.415Z,96573.58
2019-05-23T23:10:17.919Z,96576.47
2019-05-23T23:12:48.464Z,96576.52
2019-05-23T23:15:18.986Z,96573.08
2019-05-23T23:17:49.435Z,96571.10
2019-05-23T23:20:19.839Z,96566.09
2019-05-23T23:22:50.165Z,96570.94
2019-05-23T23:25:20.766Z,96569.42
2019-05-23T23:27:51.212Z,96569.36
2019-05-23T23:30:25.009Z,96565.66
2019-05-23T23:32:55.361Z,96570.16
2019-05-23T23:35:25.773Z,96566.83
2019-05-23T23:37:56.246Z,96575.28
2019-05-23T23:40:26.640Z,96566.45
2019-05-23T23:42:57.860Z,96568.65
2019-05-23T23:45:46.592Z,96561.73
2019-05-23T23:48:34.758Z,96563.97
2019-05-23T23:51:23.029Z,96563.91
2019-05-23T23:54:10.875Z,96558.02
2019-05-23T23:56:59.064Z,96556.80
2019-05-23T23:59:28.504Z,96561.09
